createdAt,value
2018-08-25T00:02:03.307Z,11.59
2018-08-25T00:04:31.811Z,11.53
2018-08-25T00:07:00.411Z,11.52
2018-08-25T00:09:29.287Z,11.46
2018-08-25T00:11:57.854Z,11.51
2018-08-25T00:14:26.558Z,11.50
2018-08-25T00:16:55.090Z,11.54
2018-08-25T00:19:24.214Z,11.67
2018-08-25T00:21:52.761Z,11.71
2018-08-25T00:24:21.610Z,11.67
2018-08-25T00:26:50.163Z,11.45
2018-08-25T00:29:18.656Z,11.36
2018-08-25T00:31:47.601Z,11.35
2018-08-25T00:34:16.091Z,11.43
2018-08-25T00:36:44.586Z,11.55
2018-08-25T00:39:13.085Z,11.43
2018-08-25T00:41:41.634Z,11.40
2018-08-25T00:44:10.912Z,11.47
2018-08-25T00:46:39.414Z,11.61
2018-08-25T00:49:07.959Z,11.75
2018-08-25T00:51:36.592Z,11.79
2018-08-25T00:54:05.198Z,11.77
2018-08-25T00:56:33.735Z,11.79
2018-08-25T00:59:02.475Z,11.81
2018-08-25T01:01:31.037Z,11.89
2018-08-25T01:03:59.975Z,11.90
2018-08-25T01:06:28.631Z,11.92
2018-08-25T01:08:57.224Z,11.94
2018-08-25T01:11:25.758Z,11.92
2018-08-25T01:13:54.465Z,11.92
2018-08-25T01:16:23.084Z,11.94
2018-08-25T01:18:51.638Z,11.92
2018-08-25T01:21:20.192Z,11.92
2018-08-25T01:23:48.730Z,11.90
2018-08-25T01:26:17.407Z,11.88
2018-08-25T01:28:45.932Z,11.94
2018-08-25T01:31:14.500Z,12.08
2018-08-25T01:33:42.987Z,12.14
2018-08-25T01:36:11.540Z,12.08
2018-08-25T01:38:40.111Z,12.13
2018-08-25T01:41:08.652Z,12.02
2018-08-25T01:43:37.187Z,12.00
2018-08-25T01:46:05.734Z,11.89
2018-08-25T01:48:34.445Z,11.99
2018-08-25T01:51:03.001Z,12.10
2018-08-25T01:53:31.479Z,12.19
2018-08-25T01:56:00.309Z,12.15
2018-08-25T01:58:28.889Z,12.31
2018-08-25T02:00:57.398Z,11.94
2018-08-25T02:03:26.006Z,11.90
2018-08-25T02:05:54.534Z,11.86
2018-08-25T02:08:23.109Z,11.90
2018-08-25T02:10:51.882Z,12.02
2018-08-25T02:13:20.406Z,12.11
2018-08-25T02:15:49.497Z,12.15
2018-08-25T02:18:18.015Z,12.06
2018-08-25T02:20:46.517Z,12.13
2018-08-25T02:23:15.022Z,12.30
2018-08-25T02:25:43.534Z,12.31
2018-08-25T02:28:12.174Z,11.86
2018-08-25T02:30:40.661Z,11.79
2018-08-25T02:33:09.198Z,11.72
2018-08-25T02:35:37.714Z,11.73
2018-08-25T02:38:06.271Z,11.70
2018-08-25T02:40:34.822Z,11.66
2018-08-25T02:43:03.355Z,11.56
2018-08-25T02:45:31.851Z,11.55
2018-08-25T02:48:00.383Z,11.53
2018-08-25T02:50:28.872Z,11.45
2018-08-25T02:52:57.325Z,11.58
2018-08-25T02:55:25.834Z,11.65
2018-08-25T02:57:54.381Z,11.68
2018-08-25T03:00:22.928Z,11.71
2018-08-25T03:02:51.394Z,11.73
2018-08-25T03:05:19.845Z,11.70
2018-08-25T03:07:48.314Z,11.69
2018-08-25T03:10:16.768Z,11.82
2018-08-25T03:12:45.282Z,11.73
2018-08-25T03:15:13.741Z,11.55
2018-08-25T03:17:42.242Z,11.60
2018-08-25T03:20:10.757Z,11.56
2018-08-25T03:22:39.257Z,11.51
2018-08-25T03:25:08.176Z,11.53
2018-08-25T03:27:36.661Z,11.58
2018-08-25T03:30:05.227Z,11.58
2018-08-25T03:32:34.568Z,11.61
2018-08-25T03:35:03.029Z,11.60
2018-08-25T03:37:31.559Z,11.55
2018-08-25T03:40:00.031Z,11.61
2018-08-25T03:42:28.509Z,11.71
2018-08-25T03:44:57.057Z,11.76
2018-08-25T03:47:25.629Z,11.89
2018-08-25T03:49:54.107Z,11.89
2018-08-25T03:52:22.609Z,11.90
2018-08-25T03:54:51.101Z,11.80
2018-08-25T03:57:19.616Z,11.68
2018-08-25T03:59:48.141Z,11.48
2018-08-25T04:02:16.653Z,11.52
2018-08-25T04:04:45.150Z,11.51
2018-08-25T04:07:13.610Z,11.48
2018-08-25T04:09:42.113Z,11.55
2018-08-25T04:12:10.581Z,11.56
2018-08-25T04:14:39.063Z,11.65
2018-08-25T04:17:07.564Z,11.83
2018-08-25T04:19:36.029Z,11.77
2018-08-25T04:22:04.572Z,11.60
2018-08-25T04:24:33.025Z,11.75
2018-08-25T04:27:01.508Z,11.58
2018-08-25T04:29:29.994Z,11.60
2018-08-25T04:31:58.881Z,11.68
2018-08-25T04:34:27.421Z,11.57
2018-08-25T04:36:55.933Z,11.64
2018-08-25T04:39:24.416Z,11.43
2018-08-25T04:41:52.921Z,11.37
2018-08-25T04:44:21.433Z,11.34
2018-08-25T04:46:49.949Z,11.51
2018-08-25T04:49:18.868Z,11.53
2018-08-25T04:51:47.385Z,11.55
2018-08-25T04:54:15.941Z,11.66
2018-08-25T04:56:44.504Z,11.81
2018-08-25T04:59:13.016Z,11.89
2018-08-25T05:01:41.547Z,11.94
2018-08-25T05:04:10.009Z,11.87
2018-08-25T05:06:38.472Z,11.77
2018-08-25T05:09:09.336Z,11.82
2018-08-25T05:11:37.853Z,11.91
2018-08-25T05:14:06.383Z,11.93
2018-08-25T05:16:34.846Z,12.00
2018-08-25T05:19:03.361Z,12.08
2018-08-25T05:21:31.857Z,12.15
2018-08-25T05:24:00.321Z,12.12
2018-08-25T05:26:29.252Z,12.12
2018-08-25T05:28:57.705Z,12.09
2018-08-25T05:31:26.189Z,12.02
2018-08-25T05:33:55.150Z,11.98
2018-08-25T05:36:23.625Z,11.88
2018-08-25T05:38:52.069Z,11.81
2018-08-25T05:41:20.625Z,11.78
2018-08-25T05:43:49.106Z,11.79
2018-08-25T05:46:17.721Z,11.88
2018-08-25T05:48:46.253Z,11.84
2018-08-25T05:51:14.765Z,11.81
2018-08-25T05:53:43.233Z,11.84
2018-08-25T05:56:11.768Z,11.89
2018-08-25T05:58:40.256Z,11.86
2018-08-25T06:01:09.422Z,11.83
2018-08-25T06:03:37.936Z,11.85
2018-08-25T06:06:06.502Z,11.91
2018-08-25T06:08:35.012Z,11.77
2018-08-25T06:11:03.551Z,11.73
2018-08-25T06:13:32.063Z,11.67
2018-08-25T06:16:00.491Z,11.61
2018-08-25T06:18:29.053Z,11.54
2018-08-25T06:20:57.521Z,11.45
2018-08-25T06:23:25.994Z,11.47
2018-08-25T06:25:54.566Z,11.48
2018-08-25T06:28:23.555Z,11.53
2018-08-25T06:30:52.081Z,11.43
2018-08-25T06:33:20.549Z,11.42
2018-08-25T06:35:49.004Z,11.43
2018-08-25T06:38:17.497Z,11.54
2018-08-25T06:40:45.997Z,11.54
2018-08-25T06:43:14.497Z,11.46
2018-08-25T06:45:43.008Z,11.36
2018-08-25T06:48:11.878Z,11.30
2018-08-25T06:50:40.342Z,11.36
2018-08-25T06:53:08.844Z,11.38
2018-08-25T06:55:37.358Z,11.40
2018-08-25T06:58:06.045Z,11.32
2018-08-25T07:00:34.547Z,11.29
2018-08-25T07:03:03.094Z,11.26
2018-08-25T07:05:31.642Z,11.35
2018-08-25T07:08:00.134Z,11.21
2018-08-25T07:10:28.644Z,11.37
2018-08-25T07:12:57.190Z,11.57
2018-08-25T07:15:25.684Z,11.58
2018-08-25T07:17:54.203Z,11.41
2018-08-25T07:20:23.110Z,11.33
2018-08-25T07:22:51.593Z,11.46
2018-08-25T07:25:20.060Z,11.42
2018-08-25T07:27:48.545Z,11.47
2018-08-25T07:30:17.046Z,11.40
2018-08-25T07:32:45.523Z,11.31
2018-08-25T07:35:14.133Z,11.25
2018-08-25T07:37:42.657Z,11.38
2018-08-25T07:40:11.141Z,11.33
2018-08-25T07:42:39.665Z,11.60
2018-08-25T07:45:08.640Z,11.72
2018-08-25T07:47:37.165Z,11.75
2018-08-25T07:50:06.349Z,12.07
2018-08-25T07:52:34.873Z,12.29
2018-08-25T07:55:03.397Z,12.38
2018-08-25T07:57:31.928Z,12.23
2018-08-25T08:00:00.426Z,12.38
2018-08-25T08:02:28.940Z,12.43
2018-08-25T08:04:57.434Z,12.33
2018-08-25T08:07:25.916Z,12.64
2018-08-25T08:09:54.432Z,12.67
2018-08-25T08:12:23.022Z,12.59
2018-08-25T08:14:51.433Z,12.58
2018-08-25T08:17:19.930Z,12.50
2018-08-25T08:19:48.417Z,12.89
2018-08-25T08:22:16.977Z,12.87
2018-08-25T08:24:45.462Z,13.31
2018-08-25T08:27:13.925Z,13.62
2018-08-25T08:29:42.743Z,13.69
2018-08-25T08:32:11.211Z,14.08
2018-08-25T08:34:39.672Z,14.74
2018-08-25T08:37:08.318Z,14.44
2018-08-25T08:39:38.504Z,14.35
2018-08-25T08:42:07.303Z,14.64
2018-08-25T08:44:35.773Z,14.52
2018-08-25T08:47:04.561Z,14.56
2018-08-25T08:49:33.053Z,14.69
2018-08-25T08:52:01.579Z,14.59
2018-08-25T08:54:30.105Z,14.31
2018-08-25T08:56:58.585Z,14.54
2018-08-25T08:59:27.657Z,14.93
2018-08-25T09:01:56.286Z,14.90
2018-08-25T09:04:24.827Z,14.92
2018-08-25T09:06:53.345Z,14.16
2018-08-25T09:09:21.834Z,14.29
2018-08-25T09:11:50.387Z,14.66
2018-08-25T09:14:18.858Z,15.20
2018-08-25T09:16:47.358Z,15.43
2018-08-25T09:19:15.873Z,15.03
2018-08-25T09:21:44.422Z,14.77
2018-08-25T09:24:12.926Z,15.15
2018-08-25T09:26:41.413Z,15.39
2018-08-25T09:29:09.895Z,16.10
2018-08-25T09:31:38.360Z,16.53
2018-08-25T09:34:06.910Z,16.60
2018-08-25T09:36:35.617Z,16.37
2018-08-25T09:39:04.573Z,16.64
2018-08-25T09:41:33.137Z,16.71
2018-08-25T09:44:01.645Z,16.45
2018-08-25T09:46:30.108Z,16.61
2018-08-25T09:48:58.785Z,15.77
2018-08-25T09:51:27.237Z,15.60
2018-08-25T09:53:55.713Z,15.72
2018-08-25T09:56:24.226Z,15.62
2018-08-25T09:58:52.713Z,15.79
2018-08-25T10:01:26.795Z,16.03
2018-08-25T10:03:55.301Z,16.25
2018-08-25T10:06:23.786Z,16.17
2018-08-25T10:08:52.417Z,15.82
2018-08-25T10:11:21.081Z,14.78
2018-08-25T10:13:49.566Z,14.76
2018-08-25T10:16:18.086Z,15.36
2018-08-25T10:18:46.593Z,16.08
2018-08-25T10:21:15.106Z,16.11
2018-08-25T10:23:43.854Z,16.30
2018-08-25T10:26:12.325Z,16.41
2018-08-25T10:28:40.834Z,16.37
2018-08-25T10:31:09.293Z,16.63
2018-08-25T10:33:37.796Z,16.94
2018-08-25T10:36:06.378Z,17.29
2018-08-25T10:38:35.012Z,17.89
2018-08-25T10:41:03.552Z,18.05
2018-08-25T10:43:32.030Z,18.29
2018-08-25T10:46:00.566Z,18.07
2018-08-25T10:48:29.121Z,17.41
2018-08-25T10:50:58.406Z,16.66
2018-08-25T10:53:26.926Z,14.98
2018-08-25T10:55:55.435Z,14.64
2018-08-25T10:58:23.933Z,14.69
2018-08-25T11:00:52.589Z,15.54
2018-08-25T11:03:20.970Z,16.36
2018-08-25T11:05:49.529Z,17.23
2018-08-25T11:08:17.993Z,17.82
2018-08-25T11:10:47.562Z,18.46
2018-08-25T11:13:16.059Z,18.57
2018-08-25T11:15:44.513Z,17.59
2018-08-25T11:18:13.041Z,17.94
2018-08-25T11:20:41.541Z,18.36
2018-08-25T11:23:10.038Z,17.90
2018-08-25T11:25:38.553Z,17.65
2018-08-25T11:28:07.087Z,17.57
2018-08-25T11:30:35.660Z,18.12
2018-08-25T11:33:04.287Z,17.42
2018-08-25T11:35:32.774Z,17.54
2018-08-25T11:38:01.398Z,17.47
2018-08-25T11:40:29.829Z,17.69
2018-08-25T11:42:58.352Z,17.71
2018-08-25T11:45:26.906Z,17.99
2018-08-25T11:47:55.391Z,18.27
2018-08-25T11:50:23.875Z,18.01
2018-08-25T11:52:52.442Z,17.71
2018-08-25T11:55:21.026Z,18.08
2018-08-25T11:57:49.633Z,18.51
2018-08-25T12:00:18.189Z,18.80
2018-08-25T12:02:46.656Z,18.49
2018-08-25T12:05:15.146Z,17.89
2018-08-25T12:07:43.728Z,17.78
2018-08-25T12:10:12.222Z,17.85
2018-08-25T12:12:40.757Z,17.44
2018-08-25T12:15:09.290Z,17.06
2018-08-25T12:17:38.029Z,15.76
2018-08-25T12:20:06.950Z,14.77
2018-08-25T12:22:35.480Z,15.03
2018-08-25T12:25:03.991Z,15.22
2018-08-25T12:27:32.445Z,15.34
2018-08-25T12:30:01.015Z,15.43
2018-08-25T12:32:29.619Z,15.51
2018-08-25T12:34:58.162Z,15.56
2018-08-25T12:37:26.733Z,15.86
2018-08-25T12:39:55.708Z,16.33
2018-08-25T12:42:24.254Z,16.67
2018-08-25T12:44:52.757Z,17.20
2018-08-25T12:47:24.370Z,17.95
2018-08-25T12:49:54.041Z,18.02
2018-08-25T12:52:22.847Z,18.24
2018-08-25T12:54:51.365Z,18.67
2018-08-25T12:57:20.745Z,18.23
2018-08-25T12:59:49.263Z,18.06
2018-08-25T13:02:17.774Z,18.55
2018-08-25T13:04:46.245Z,18.12
2018-08-25T13:07:15.326Z,17.60
2018-08-25T13:09:45.183Z,17.07
2018-08-25T13:12:14.124Z,16.33
2018-08-25T13:14:43.444Z,15.77
2018-08-25T13:17:11.923Z,15.00
2018-08-25T13:19:40.403Z,14.17
2018-08-25T13:22:08.933Z,13.69
2018-08-25T13:24:37.410Z,13.50
2018-08-25T13:27:05.888Z,13.27
2018-08-25T13:29:34.410Z,13.20
2018-08-25T13:32:02.933Z,13.40
2018-08-25T13:34:31.437Z,13.57
2018-08-25T13:36:59.985Z,13.67
2018-08-25T13:39:28.525Z,13.77
2018-08-25T13:41:57.149Z,13.95
2018-08-25T13:44:25.697Z,14.47
2018-08-25T13:46:54.239Z,14.90
2018-08-25T13:49:22.780Z,15.24
2018-08-25T13:51:51.300Z,15.47
2018-08-25T13:54:19.806Z,15.39
2018-08-25T13:56:48.278Z,15.31
2018-08-25T13:59:16.784Z,15.33
2018-08-25T14:01:45.261Z,15.45
2018-08-25T14:04:13.705Z,15.74
2018-08-25T14:06:42.202Z,15.51
2018-08-25T14:09:10.746Z,15.05
2018-08-25T14:11:39.249Z,14.61
2018-08-25T14:14:07.698Z,14.18
2018-08-25T14:16:36.152Z,13.54
2018-08-25T14:19:04.841Z,13.39
2018-08-25T14:21:33.352Z,13.38
2018-08-25T14:24:01.831Z,13.28
2018-08-25T14:26:30.438Z,13.23
2018-08-25T14:28:59.028Z,13.35
2018-08-25T14:31:27.860Z,13.52
2018-08-25T14:33:56.377Z,13.78
2018-08-25T14:36:24.968Z,14.24
2018-08-25T14:38:53.522Z,14.82
2018-08-25T14:41:21.992Z,15.06
2018-08-25T14:43:50.517Z,14.92
2018-08-25T14:46:19.062Z,15.64
2018-08-25T14:48:47.525Z,16.00
2018-08-25T14:51:16.076Z,15.81
2018-08-25T14:53:44.718Z,15.57
2018-08-25T14:56:13.334Z,15.61
2018-08-25T14:58:41.845Z,15.59
2018-08-25T15:01:10.305Z,15.33
2018-08-25T15:03:38.786Z,15.51
2018-08-25T15:06:07.242Z,15.39
2018-08-25T15:08:36.123Z,15.67
2018-08-25T15:11:04.606Z,15.68
2018-08-25T15:13:33.109Z,15.79
2018-08-25T15:16:01.612Z,15.68
2018-08-25T15:18:30.408Z,15.65
2018-08-25T15:20:58.887Z,16.04
2018-08-25T15:23:27.364Z,16.44
2018-08-25T15:25:55.890Z,16.10
2018-08-25T15:28:24.415Z,16.51
2018-08-25T15:30:52.932Z,16.58
2018-08-25T15:33:21.518Z,16.10
2018-08-25T15:35:50.065Z,15.72
2018-08-25T15:38:18.525Z,15.40
2018-08-25T15:40:47.016Z,15.22
2018-08-25T15:43:15.517Z,14.96
2018-08-25T15:45:44.367Z,14.65
2018-08-25T15:48:12.869Z,14.65
2018-08-25T15:50:41.489Z,14.49
2018-08-25T15:53:09.986Z,14.26
2018-08-25T15:55:38.437Z,14.10
2018-08-25T15:58:07.350Z,13.67
2018-08-25T16:00:35.837Z,13.74
2018-08-25T16:03:04.301Z,13.56
2018-08-25T16:05:32.842Z,13.34
2018-08-25T16:08:01.332Z,13.35
2018-08-25T16:10:29.830Z,13.27
2018-08-25T16:12:58.306Z,13.54
2018-08-25T16:15:26.837Z,13.85
2018-08-25T16:17:55.369Z,14.42
2018-08-25T16:20:23.906Z,15.00
2018-08-25T16:22:52.429Z,15.09
2018-08-25T16:25:20.994Z,15.07
2018-08-25T16:27:49.461Z,15.25
2018-08-25T16:30:17.958Z,15.37
2018-08-25T16:32:46.501Z,15.53
2018-08-25T16:35:14.961Z,15.78
2018-08-25T16:37:43.626Z,15.78
2018-08-25T16:40:12.406Z,15.36
2018-08-25T16:42:40.921Z,14.89
2018-08-25T16:45:09.401Z,15.10
2018-08-25T16:47:37.913Z,14.88
2018-08-25T16:50:06.800Z,14.75
2018-08-25T16:52:35.269Z,14.59
2018-08-25T16:55:03.854Z,14.60
2018-08-25T16:57:32.300Z,14.49
2018-08-25T17:00:00.784Z,14.45
2018-08-25T17:02:29.655Z,14.46
2018-08-25T17:04:58.151Z,14.35
2018-08-25T17:07:26.617Z,14.54
2018-08-25T17:09:55.314Z,14.52
2018-08-25T17:12:23.881Z,14.44
2018-08-25T17:14:52.393Z,14.21
2018-08-25T17:17:20.896Z,13.95
2018-08-25T17:19:49.369Z,13.71
2018-08-25T17:22:17.860Z,13.58
2018-08-25T17:24:46.428Z,13.49
2018-08-25T17:27:14.909Z,13.41
2018-08-25T17:29:43.437Z,13.43
2018-08-25T17:32:11.982Z,13.37
2018-08-25T17:34:40.465Z,13.35
2018-08-25T17:37:08.965Z,13.25
2018-08-25T17:39:37.454Z,13.24
2018-08-25T17:42:06.016Z,13.17
2018-08-25T17:44:34.480Z,13.11
2018-08-25T17:47:02.965Z,13.04
2018-08-25T17:49:31.487Z,13.00
2018-08-25T17:51:59.972Z,12.90
2018-08-25T17:54:28.470Z,12.68
2018-08-25T17:56:57.107Z,12.64
2018-08-25T17:59:25.532Z,12.57
2018-08-25T18:01:54.075Z,12.48
2018-08-25T18:04:22.581Z,12.46
2018-08-25T18:06:51.036Z,12.34
2018-08-25T18:09:19.521Z,12.25
2018-08-25T18:11:48.055Z,12.11
2018-08-25T18:14:16.541Z,12.10
2018-08-25T18:16:45.061Z,12.01
2018-08-25T18:19:13.541Z,12.06
2018-08-25T18:21:42.419Z,12.01
2018-08-25T18:24:10.947Z,12.03
2018-08-25T18:26:39.423Z,11.97
2018-08-25T18:29:07.997Z,11.94
2018-08-25T18:31:36.496Z,11.85
2018-08-25T18:34:04.998Z,11.79
2018-08-25T18:36:33.526Z,11.82
2018-08-25T18:39:02.073Z,11.71
2018-08-25T18:41:30.574Z,11.63
2018-08-25T18:43:59.042Z,11.55
2018-08-25T18:46:27.670Z,11.59
2018-08-25T18:48:56.203Z,11.55
2018-08-25T18:51:24.717Z,11.48
2018-08-25T18:53:53.307Z,11.47
2018-08-25T18:56:21.770Z,11.46
2018-08-25T18:58:50.385Z,11.43
2018-08-25T19:01:18.877Z,11.45
2018-08-25T19:03:47.381Z,11.51
2018-08-25T19:06:15.900Z,11.54
2018-08-25T19:08:44.405Z,11.52
2018-08-25T19:11:12.925Z,11.54
2018-08-25T19:13:41.389Z,11.51
2018-08-25T19:16:10.279Z,11.53
2018-08-25T19:18:38.724Z,11.45
2018-08-25T19:21:07.338Z,11.35
2018-08-25T19:23:35.815Z,11.40
2018-08-25T19:26:04.284Z,11.37
2018-08-25T19:28:32.776Z,11.40
2018-08-25T19:31:01.242Z,11.38
2018-08-25T19:33:29.768Z,11.25
2018-08-25T19:35:58.262Z,11.18
2018-08-25T19:38:26.784Z,11.09
2018-08-25T19:40:55.317Z,11.06
2018-08-25T19:43:23.898Z,10.99
2018-08-25T19:45:52.768Z,10.97
2018-08-25T19:48:21.327Z,10.95
2018-08-25T19:50:49.849Z,10.87
2018-08-25T19:53:18.320Z,10.82
2018-08-25T19:55:46.820Z,10.78
2018-08-25T19:58:15.313Z,10.68
2018-08-25T20:00:43.800Z,10.60
2018-08-25T20:03:12.309Z,10.56
2018-08-25T20:05:40.967Z,10.53
2018-08-25T20:08:09.325Z,10.50
2018-08-25T20:10:37.825Z,10.48
2018-08-25T20:13:06.468Z,10.46
2018-08-25T20:15:34.967Z,10.43
2018-08-25T20:18:03.521Z,10.41
2018-08-25T20:20:32.088Z,10.43
2018-08-25T20:23:00.557Z,10.39
2018-08-25T20:25:29.016Z,10.34
2018-08-25T20:27:57.557Z,10.30
2018-08-25T20:30:26.101Z,10.31
2018-08-25T20:32:54.549Z,10.31
2018-08-25T20:35:23.426Z,10.32
2018-08-25T20:37:51.877Z,10.26
2018-08-25T20:40:20.385Z,10.31
2018-08-25T20:42:48.883Z,10.30
2018-08-25T20:45:17.355Z,10.29
2018-08-25T20:47:45.801Z,10.25
2018-08-25T20:50:14.337Z,10.21
2018-08-25T20:52:42.832Z,10.19
2018-08-25T20:55:11.361Z,10.15
2018-08-25T20:57:39.795Z,10.15
2018-08-25T21:00:08.762Z,10.15
2018-08-25T21:02:37.231Z,10.17
2018-08-25T21:05:05.728Z,10.19
2018-08-25T21:07:34.269Z,10.19
2018-08-25T21:10:02.778Z,10.23
2018-08-25T21:12:31.238Z,10.21
2018-08-25T21:14:59.761Z,10.27
2018-08-25T21:17:28.248Z,10.32
2018-08-25T21:19:56.790Z,10.36
2018-08-25T21:22:25.259Z,10.36
2018-08-25T21:24:53.718Z,10.39
2018-08-25T21:27:22.230Z,10.33
2018-08-25T21:29:50.742Z,10.32
2018-08-25T21:32:19.221Z,10.37
2018-08-25T21:34:47.695Z,10.45
2018-08-25T21:37:16.245Z,10.48
2018-08-25T21:39:44.699Z,10.55
2018-08-25T21:42:13.156Z,10.56
2018-08-25T21:44:41.634Z,10.47
2018-08-25T21:47:10.126Z,10.45
2018-08-25T21:49:38.666Z,10.33
2018-08-25T21:52:07.199Z,10.25
2018-08-25T21:54:35.649Z,10.25
2018-08-25T21:57:04.530Z,10.19
2018-08-25T21:59:32.986Z,10.11
2018-08-25T22:02:01.446Z,10.03
2018-08-25T22:04:30.325Z,10.01
2018-08-25T22:06:58.867Z,9.99
2018-08-25T22:09:27.350Z,10.00
2018-08-25T22:11:55.974Z,9.92
2018-08-25T22:14:24.520Z,9.85
2018-08-25T22:16:53.162Z,9.79
2018-08-25T22:19:22.710Z,9.76
2018-08-25T22:21:51.149Z,9.73
2018-08-25T22:24:19.638Z,9.74
2018-08-25T22:26:48.135Z,9.67
2018-08-25T22:29:16.607Z,9.69
2018-08-25T22:31:45.533Z,9.62
2018-08-25T22:34:13.990Z,9.62
2018-08-25T22:36:42.491Z,9.69
2018-08-25T22:39:12.313Z,9.65
2018-08-25T22:41:40.955Z,9.63
2018-08-25T22:44:10.201Z,9.60
2018-08-25T22:46:38.869Z,9.63
2018-08-25T22:49:07.804Z,9.60
2018-08-25T22:51:36.309Z,9.56
2018-08-25T22:54:04.869Z,9.53
2018-08-25T22:56:33.361Z,9.53
2018-08-25T22:59:01.836Z,9.53
2018-08-25T23:01:30.676Z,9.50
2018-08-25T23:03:59.135Z,9.46
2018-08-25T23:06:27.614Z,9.46
2018-08-25T23:08:56.141Z,9.48
2018-08-25T23:11:24.615Z,9.37
2018-08-25T23:13:53.649Z,9.36
2018-08-25T23:16:22.165Z,9.33
2018-08-25T23:18:51.202Z,9.29
2018-08-25T23:21:19.686Z,9.23
2018-08-25T23:23:48.166Z,9.13
2018-08-25T23:26:16.689Z,9.13
2018-08-25T23:28:45.193Z,9.13
2018-08-25T23:31:13.701Z,9.09
2018-08-25T23:33:42.214Z,9.10
2018-08-25T23:36:10.704Z,9.09
2018-08-25T23:38:39.616Z,9.12
2018-08-25T23:41:08.066Z,9.13
2018-08-25T23:43:36.629Z,9.12
2018-08-25T23:46:05.206Z,9.12
2018-08-25T23:48:33.698Z,9.07
2018-08-25T23:51:02.138Z,9.06
2018-08-25T23:53:30.622Z,9.07
2018-08-25T23:55:59.102Z,9.10
2018-08-25T23:58:27.658Z,9.03
